createdAt,value
2022-08-08T00:00:51.082Z,47.60
2022-08-08T00:03:31.758Z,48.36
2022-08-08T00:06:57.099Z,48.28
2022-08-08T00:10:28.610Z,48.59
2022-08-08T00:14:17.004Z,48.93
2022-08-08T00:18:03.129Z,49.34
2022-08-08T00:21:39.720Z,49.60
2022-08-08T00:25:10.853Z,49.25
2022-08-08T00:28:49.008Z,49.53
2022-08-08T00:32:28.663Z,49.95
2022-08-08T00:36:06.307Z,50.56
2022-08-08T00:41:08.979Z,50.56
2022-08-08T00:44:11.992Z,49.45
2022-08-08T00:48:30.619Z,49.47
2022-08-08T00:52:25.074Z,49.58
2022-08-08T00:56:30.023Z,50.98
2022-08-08T01:00:00.504Z,51.01
2022-08-08T01:04:11.219Z,51.42
2022-08-08T01:07:56.746Z,50.89
2022-08-08T01:11:37.934Z,49.29
2022-08-08T01:15:43.426Z,48.82
2022-08-08T01:19:41.854Z,48.39
2022-08-08T01:24:05.979Z,48.90
2022-08-08T01:27:44.194Z,48.68
2022-08-08T01:32:13.535Z,48.70
2022-08-08T01:35:14.564Z,48.37
2022-08-08T01:38:51.710Z,49.30
2022-08-08T01:42:36.225Z,49.59
2022-08-08T01:46:31.443Z,49.31
2022-08-08T01:50:07.867Z,49.71
2022-08-08T01:55:17.325Z,49.74
2022-08-08T01:58:12.139Z,49.70
2022-08-08T02:01:55.050Z,49.87
2022-08-08T02:05:56.829Z,50.01
2022-08-08T02:10:03.759Z,50.85
2022-08-08T02:13:52.666Z,50.80
2022-08-08T02:17:25.207Z,50.60
2022-08-08T02:21:20.320Z,50.32
2022-08-08T02:25:02.359Z,50.33
2022-08-08T02:28:48.437Z,50.30
2022-08-08T02:32:31.229Z,50.71
2022-08-08T02:36:47.912Z,50.55
2022-08-08T02:40:19.888Z,50.27
2022-08-08T02:44:34.915Z,50.41
2022-08-08T02:48:26.177Z,50.42
2022-08-08T02:51:56.527Z,50.75
2022-08-08T02:55:59.731Z,50.92
2022-08-08T03:00:01.603Z,50.78
2022-08-08T03:05:03.590Z,51.11
2022-08-08T03:08:22.559Z,50.99
2022-08-08T03:12:36.595Z,51.26
2022-08-08T03:16:38.395Z,52.11
2022-08-08T03:20:08.284Z,51.91
2022-08-08T03:23:56.520Z,51.52
2022-08-08T03:27:27.084Z,52.08
2022-08-08T03:31:22.164Z,51.86
2022-08-08T03:34:31.153Z,52.36
2022-08-08T03:38:54.074Z,52.52
2022-08-08T03:42:11.743Z,52.29
2022-08-08T03:46:05.287Z,51.90
2022-08-08T03:49:28.022Z,52.22
2022-08-08T03:52:47.238Z,52.22
2022-08-08T03:56:10.277Z,52.35
2022-08-08T03:59:59.525Z,52.53
2022-08-08T04:03:58.330Z,52.27
2022-08-08T04:07:21.349Z,52.17
2022-08-08T04:10:47.350Z,52.36
2022-08-08T04:14:35.749Z,52.24
2022-08-08T04:18:00.272Z,52.81
2022-08-08T04:21:26.433Z,52.84
2022-08-08T04:24:50.367Z,53.38
2022-08-08T04:28:40.238Z,52.79
2022-08-08T04:32:00.352Z,53.08
2022-08-08T04:35:23.127Z,52.40
2022-08-08T04:38:57.281Z,52.56
2022-08-08T04:42:33.966Z,51.91
2022-08-08T04:46:00.745Z,52.25
2022-08-08T04:49:28.972Z,52.47
2022-08-08T04:53:13.978Z,52.11
2022-08-08T04:56:55.809Z,51.47
2022-08-08T05:00:25.123Z,51.98
2022-08-08T05:04:09.709Z,51.33
2022-08-08T05:07:38.051Z,52.35
2022-08-08T05:11:07.858Z,52.65
2022-08-08T05:26:14.276Z,48.13
2022-08-08T05:29:36.787Z,47.70
2022-08-08T05:33:03.601Z,47.58
2022-08-08T05:36:27.970Z,47.40
2022-08-08T05:39:55.342Z,47.18
2022-08-08T05:44:02.855Z,46.71
2022-08-08T05:47:10.371Z,47.34
2022-08-08T05:50:36.799Z,47.10
2022-08-08T05:54:27.449Z,46.81
2022-08-08T05:58:06.153Z,47.08
2022-08-08T06:01:56.695Z,46.97
2022-08-08T06:05:35.461Z,46.96
2022-08-08T06:09:59.136Z,46.53
2022-08-08T06:12:47.985Z,46.32
2022-08-08T06:16:13.454Z,46.00
2022-08-08T06:19:38.204Z,45.76
2022-08-08T06:23:02.755Z,46.39
2022-08-08T06:26:43.744Z,46.12
2022-08-08T06:30:26.418Z,43.61
2022-08-08T06:34:26.654Z,43.45
2022-08-08T06:37:59.566Z,44.40
2022-08-08T06:41:33.114Z,43.11
2022-08-08T06:44:55.174Z,43.12
2022-08-08T06:48:17.406Z,42.33
2022-08-08T06:51:52.410Z,42.52
2022-08-08T06:55:17.684Z,43.07
2022-08-08T06:58:41.954Z,43.46
2022-08-08T07:02:27.018Z,43.65
2022-08-08T07:06:02.030Z,44.94
2022-08-08T07:09:45.286Z,46.75
2022-08-08T07:13:19.853Z,46.87
2022-08-08T07:17:09.413Z,45.73
2022-08-08T07:20:45.939Z,47.01
2022-08-08T07:24:25.974Z,46.34
2022-08-08T07:28:01.805Z,47.30
2022-08-08T07:31:29.553Z,47.59
2022-08-08T07:35:02.875Z,45.27
2022-08-08T07:38:28.414Z,45.99
2022-08-08T07:42:04.368Z,44.55
2022-08-08T07:45:34.740Z,45.16
2022-08-08T07:49:14.269Z,42.55
2022-08-08T07:52:36.114Z,43.73
2022-08-08T07:56:09.505Z,41.94
2022-08-08T07:59:53.680Z,43.16
2022-08-08T08:03:23.325Z,42.81
2022-08-08T08:06:48.791Z,40.93
2022-08-08T08:10:15.670Z,42.15
2022-08-08T08:14:07.905Z,43.00
2022-08-08T08:17:36.538Z,42.80
2022-08-08T08:21:18.669Z,41.18
2022-08-08T08:24:43.005Z,40.35
2022-08-08T08:28:04.952Z,41.57
2022-08-08T08:31:41.777Z,40.85
2022-08-08T08:35:05.229Z,39.02
2022-08-08T08:38:28.583Z,39.04
2022-08-08T08:41:53.611Z,38.71
2022-08-08T08:45:23.547Z,38.66
2022-08-08T08:48:49.214Z,39.95
2022-08-08T08:52:20.546Z,38.21
2022-08-08T08:55:44.184Z,40.03
2022-08-08T08:59:15.407Z,41.17
2022-08-08T09:02:42.165Z,40.53
2022-08-08T09:06:04.449Z,40.11
2022-08-08T09:09:54.944Z,39.68
2022-08-08T09:13:27.828Z,38.98
2022-08-08T09:16:54.587Z,39.42
2022-08-08T09:22:01.166Z,39.31
2022-08-08T09:23:59.524Z,39.03
2022-08-08T09:27:55.743Z,40.06
2022-08-08T09:31:56.111Z,39.61
2022-08-08T09:35:31.795Z,40.22
2022-08-08T09:39:00.015Z,40.22
2022-08-08T09:42:23.192Z,40.31
2022-08-08T09:46:03.675Z,40.60
2022-08-08T09:49:42.724Z,40.57
2022-08-08T09:53:24.736Z,45.31
2022-08-08T09:56:56.110Z,46.93
2022-08-08T10:00:53.624Z,47.90
2022-08-08T10:04:04.934Z,48.89
2022-08-08T10:07:27.329Z,49.64
2022-08-08T10:11:01.063Z,49.16
2022-08-08T10:14:38.198Z,49.12
2022-08-08T10:18:10.056Z,49.71
2022-08-08T10:21:42.357Z,49.11
2022-08-08T10:25:20.260Z,49.19
2022-08-08T10:29:05.410Z,49.73
2022-08-08T10:32:34.410Z,49.84
2022-08-08T10:36:08.538Z,50.89
2022-08-08T10:39:54.531Z,51.69
2022-08-08T10:43:22.906Z,50.55
2022-08-08T10:46:48.390Z,50.84
2022-08-08T10:50:15.702Z,50.83
2022-08-08T10:53:57.391Z,49.31
2022-08-08T10:57:27.525Z,49.15
2022-08-08T11:01:10.872Z,49.91
2022-08-08T11:04:45.250Z,50.84
2022-08-08T11:08:31.071Z,51.43
2022-08-08T11:12:13.212Z,52.01
2022-08-08T11:15:35.841Z,51.59
2022-08-08T11:19:20.520Z,50.79
2022-08-08T11:22:50.092Z,50.64
2022-08-08T11:26:19.146Z,50.30
2022-08-08T11:30:18.511Z,48.56
2022-08-08T11:33:51.234Z,46.78
2022-08-08T11:37:15.446Z,48.25
2022-08-08T11:40:40.051Z,50.28
2022-08-08T11:44:05.506Z,51.15
2022-08-08T11:47:39.602Z,46.41
2022-08-08T11:51:30.634Z,46.21
2022-08-08T11:54:55.548Z,46.96
2022-08-08T11:58:17.713Z,47.07
2022-08-08T12:01:43.313Z,47.70
2022-08-08T12:05:08.393Z,49.07
2022-08-08T12:08:37.676Z,49.64
2022-08-08T12:11:59.517Z,49.89
2022-08-08T12:15:49.081Z,50.20
2022-08-08T12:19:14.417Z,50.45
2022-08-08T12:22:48.734Z,50.27
2022-08-08T12:26:17.465Z,51.12
2022-08-08T12:29:56.528Z,48.80
2022-08-08T12:33:37.067Z,49.81
2022-08-08T12:37:08.538Z,51.29
2022-08-08T12:40:54.038Z,53.13
2022-08-08T12:44:32.076Z,54.26
2022-08-08T12:48:09.835Z,54.88
2022-08-08T12:51:53.768Z,55.87
2022-08-08T12:55:29.325Z,55.38
2022-08-08T12:59:00.115Z,55.25
2022-08-08T13:02:28.026Z,56.21
2022-08-08T13:06:05.768Z,56.90
2022-08-08T13:09:33.010Z,57.89
2022-08-08T13:13:01.644Z,58.09
2022-08-08T13:16:30.077Z,58.74
2022-08-08T13:20:06.544Z,59.02
2022-08-08T13:23:36.481Z,58.84
2022-08-08T13:27:12.911Z,60.43
2022-08-08T13:30:37.318Z,60.20
2022-08-08T13:33:58.913Z,59.66
2022-08-08T13:38:04.634Z,58.63
2022-08-08T13:41:16.609Z,58.83
2022-08-08T13:44:38.982Z,57.09
2022-08-08T13:48:25.711Z,57.07
2022-08-08T13:52:02.476Z,56.81
2022-08-08T13:55:29.625Z,55.36
2022-08-08T13:59:02.725Z,54.37
2022-08-08T14:02:31.171Z,54.15
2022-08-08T14:06:33.205Z,54.19
2022-08-08T14:10:17.386Z,53.81
2022-08-08T14:14:00.178Z,53.73
2022-08-08T14:17:57.426Z,53.77
2022-08-08T14:21:07.906Z,53.52
2022-08-08T14:24:40.293Z,52.87
2022-08-08T14:28:11.635Z,52.95
2022-08-08T14:32:10.499Z,52.50
2022-08-08T14:35:35.102Z,52.03
2022-08-08T14:39:01.207Z,51.39
2022-08-08T14:42:27.862Z,50.87
2022-08-08T14:46:02.757Z,51.13
2022-08-08T14:49:37.871Z,50.63
2022-08-08T14:53:17.046Z,50.69
2022-08-08T14:56:41.174Z,50.12
2022-08-08T15:00:07.996Z,50.20
2022-08-08T15:03:29.701Z,50.07
2022-08-08T15:07:02.859Z,49.01
2022-08-08T15:10:28.976Z,50.32
2022-08-08T15:14:01.847Z,49.60
2022-08-08T15:17:25.108Z,49.17
2022-08-08T15:20:48.190Z,48.78
2022-08-08T15:24:16.220Z,49.07
2022-08-08T15:28:04.345Z,48.74
2022-08-08T15:31:55.833Z,48.71
2022-08-08T15:35:07.133Z,48.91
2022-08-08T15:38:28.960Z,48.41
2022-08-08T15:41:53.979Z,48.65
2022-08-08T15:45:16.046Z,48.64
2022-08-08T15:48:38.344Z,48.16
2022-08-08T15:52:12.871Z,49.06
2022-08-08T15:55:34.420Z,49.42
2022-08-08T15:58:56.014Z,49.30
2022-08-08T16:02:21.510Z,49.37
2022-08-08T16:05:53.529Z,49.44
2022-08-08T16:13:09.020Z,49.61
2022-08-08T16:13:27.732Z,50.09
2022-08-08T16:16:54.915Z,50.30
2022-08-08T16:20:16.626Z,50.10
2022-08-08T16:23:41.985Z,50.68
2022-08-08T16:27:06.004Z,50.95
2022-08-08T16:30:39.595Z,51.12
2022-08-08T16:34:02.153Z,51.55
2022-08-08T16:37:27.810Z,52.29
2022-08-08T16:40:52.223Z,52.56
2022-08-08T16:44:16.146Z,52.75
2022-08-08T16:47:49.810Z,52.63
2022-08-08T16:51:14.411Z,52.70
2022-08-08T16:55:52.131Z,52.21
2022-08-08T16:58:43.515Z,52.99
2022-08-08T17:02:37.935Z,53.38
2022-08-08T17:05:56.481Z,53.96
2022-08-08T17:09:19.676Z,54.42
2022-08-08T17:12:52.944Z,54.80
2022-08-08T17:16:17.454Z,55.17
2022-08-08T17:19:45.775Z,54.96
2022-08-08T17:23:18.200Z,55.08
2022-08-08T17:26:57.992Z,54.71
2022-08-08T17:30:27.355Z,54.73
2022-08-08T17:34:54.212Z,54.50
2022-08-08T17:37:36.887Z,54.29
2022-08-08T17:41:01.345Z,54.04
2022-08-08T17:44:26.977Z,53.35
2022-08-08T17:47:51.092Z,53.65
2022-08-08T17:51:15.363Z,53.61
2022-08-08T17:54:39.681Z,53.42
2022-08-08T17:58:01.969Z,53.51
2022-08-08T18:01:30.053Z,54.49
2022-08-08T18:05:05.725Z,56.00
2022-08-08T18:08:38.257Z,57.42
2022-08-08T18:12:04.145Z,57.25
2022-08-08T18:15:31.732Z,57.10
2022-08-08T18:18:56.517Z,56.79
2022-08-08T18:22:37.504Z,57.02
2022-08-08T18:26:04.115Z,56.61
2022-08-08T18:29:33.984Z,57.07
2022-08-08T18:32:56.265Z,56.99
2022-08-08T18:36:23.253Z,56.80
2022-08-08T18:39:49.658Z,56.87
2022-08-08T18:43:16.429Z,56.87
2022-08-08T18:46:56.075Z,57.68
2022-08-08T18:50:24.273Z,58.02
2022-08-08T18:54:00.565Z,58.42
2022-08-08T18:57:27.600Z,58.91
2022-08-08T19:00:55.761Z,58.54
2022-08-08T19:04:17.557Z,58.54
2022-08-08T19:07:40.589Z,58.90
2022-08-08T19:11:17.463Z,59.77
2022-08-08T19:14:44.850Z,60.63
2022-08-08T19:18:33.004Z,60.52
2022-08-08T19:21:50.559Z,60.16
2022-08-08T19:26:02.041Z,60.01
2022-08-08T19:28:59.757Z,59.33
2022-08-08T19:32:22.749Z,59.51
2022-08-08T19:36:08.407Z,58.94
2022-08-08T19:39:30.897Z,60.60
2022-08-08T19:42:58.985Z,63.02
2022-08-08T19:46:23.040Z,61.36
2022-08-08T19:49:59.880Z,61.28
2022-08-08T19:53:51.111Z,60.36
2022-08-08T19:57:11.293Z,60.24
2022-08-08T20:00:37.182Z,59.49
2022-08-08T20:04:03.470Z,60.26
2022-08-08T20:08:38.845Z,61.66
2022-08-08T20:11:06.866Z,62.56
2022-08-08T20:14:35.926Z,63.11
2022-08-08T20:18:04.867Z,63.22
2022-08-08T20:21:38.270Z,63.68
2022-08-08T20:25:05.821Z,63.63
2022-08-08T20:28:37.374Z,64.35
2022-08-08T20:32:14.141Z,64.61
2022-08-08T20:35:58.810Z,64.50
2022-08-08T20:39:20.048Z,64.37
2022-08-08T20:42:49.111Z,64.52
2022-08-08T20:46:16.397Z,64.19
2022-08-08T20:49:46.764Z,64.10
2022-08-08T20:53:10.864Z,65.09
2022-08-08T20:57:04.420Z,65.92
2022-08-08T21:00:21.355Z,67.08
2022-08-08T21:03:59.824Z,67.81
2022-08-08T21:07:31.261Z,67.56
2022-08-08T21:11:06.831Z,66.72
2022-08-08T21:14:34.451Z,66.01
2022-08-08T21:17:56.680Z,65.78
2022-08-08T21:21:20.356Z,65.04
2022-08-08T21:24:59.162Z,64.66
2022-08-08T21:28:36.006Z,64.61
2022-08-08T21:31:59.240Z,64.79
2022-08-08T21:36:14.754Z,64.55
2022-08-08T21:39:10.606Z,65.17
2022-08-08T21:42:36.451Z,66.57
2022-08-08T21:48:05.191Z,67.34
2022-08-08T21:49:41.422Z,67.73
2022-08-08T21:54:31.170Z,68.75
2022-08-08T21:56:50.640Z,68.81
2022-08-08T22:00:14.348Z,68.56
2022-08-08T22:03:40.968Z,67.81
2022-08-08T22:07:04.797Z,67.61
2022-08-08T22:10:32.026Z,70.14
2022-08-08T22:13:57.051Z,71.73
2022-08-08T22:17:22.652Z,72.68
2022-08-08T22:20:45.058Z,73.03
2022-08-08T22:24:07.670Z,73.26
2022-08-08T22:27:38.496Z,73.97
2022-08-08T22:31:15.970Z,73.84
2022-08-08T22:34:39.325Z,74.29
2022-08-08T22:38:06.163Z,74.49
2022-08-08T22:41:31.934Z,74.27
2022-08-08T22:44:56.183Z,74.79
2022-08-08T22:48:18.098Z,76.12
2022-08-08T22:51:46.441Z,76.05
2022-08-08T22:55:08.773Z,75.99
2022-08-08T22:58:34.188Z,74.90
2022-08-08T23:02:02.461Z,74.82
2022-08-08T23:05:28.011Z,74.11
2022-08-08T23:08:55.020Z,74.08
2022-08-08T23:12:39.589Z,74.62
2022-08-08T23:16:39.540Z,74.53
2022-08-08T23:19:44.934Z,74.33
2022-08-08T23:23:12.373Z,74.58
2022-08-08T23:26:37.831Z,74.46
2022-08-08T23:30:03.526Z,74.80
2022-08-08T23:34:15.317Z,74.06
2022-08-08T23:37:07.999Z,74.37
2022-08-08T23:40:35.867Z,73.12
2022-08-08T23:43:58.692Z,72.67
2022-08-08T23:49:07.966Z,72.92
2022-08-08T23:51:12.802Z,73.44
2022-08-08T23:55:00.328Z,73.06
2022-08-08T23:58:38.196Z,73.70
